Time;durP1;ratioP1;P1;durP2;ratioP2;P2;SDS_P1;SDS_P2;PMS_P1;PMS_P2;Temp;Humidity;BMP_temperature;BMP_pressure;BME280_temperature;BME280_humidity;BME280_pressure;Samples;Min_cycle;Max_cycle;Signal;HPM_P1;HPM_P2
2023/05/14 00:00:50;;;;;;;;;;;10.80;53.90;;;;;;4113677;28;19977;-84
2023/05/14 00:03:13;;;;;;;;;;;10.90;53.70;;;;;;4124633;28;19924;-84
2023/05/14 00:05:32;;;;;;;;;;;10.80;53.20;;;;;;4105852;28;20011;-84
2023/05/14 00:07:51;;;;;;;;;;;10.80;53.40;;;;;;4110112;28;19924;-84
2023/05/14 00:10:11;;;;;;;;;;;10.80;54.00;;;;;;4122225;28;19921;-84
2023/05/14 00:12:30;;;;;;;;;;;10.70;53.80;;;;;;4109239;28;19932;-84
2023/05/14 00:14:50;;;;;;;;;;;10.70;53.60;;;;;;4106525;28;20002;-84
2023/05/14 00:17:09;;;;;;;;;;;10.70;53.60;;;;;;4108651;28;19929;-84
2023/05/14 00:19:28;;;;;;;;;;;10.70;53.80;;;;;;4106977;28;20006;-85
2023/05/14 00:21:47;;;;;;;;;;;10.70;54.00;;;;;;4119036;28;19928;-83
2023/05/14 00:24:07;;;;;;;;;;;10.70;54.20;;;;;;4119672;28;20807;-85
2023/05/14 00:26:26;;;;;;;;;;;10.70;54.30;;;;;;4119919;28;19925;-83
2023/05/14 00:28:45;;;;;;;;;;;10.60;54.80;;;;;;4106572;28;19937;-83
2023/05/14 00:31:04;;;;;;;;;;;10.60;54.40;;;;;;4104492;28;20652;-85
2023/05/14 00:33:23;;;;;;;;;;;10.60;54.60;;;;;;4119826;28;19925;-84
2023/05/14 00:35:43;;;;;;;;;;;10.60;54.50;;;;;;4118490;28;19929;-84
2023/05/14 00:38:04;;;;;;;;;;;10.60;54.50;;;;;;4118187;28;19928;-83
2023/05/14 00:40:24;;;;;;;;;;;10.60;54.60;;;;;;4105545;28;19920;-83
2023/05/14 00:42:44;;;;;;;;;;;10.60;54.80;;;;;;4124192;28;20069;-83
2023/05/14 00:45:03;;;;;;;;;;;10.60;54.70;;;;;;4118614;28;20357;-84
2023/05/14 00:47:22;;;;;;;;;;;10.50;54.80;;;;;;4103904;28;19929;-84
2023/05/14 00:49:42;;;;;;;;;;;10.60;54.50;;;;;;4119551;28;19975;-84
2023/05/14 00:52:02;;;;;;;;;;;10.60;54.90;;;;;;4115968;28;19921;-83
2023/05/14 00:54:21;;;;;;;;;;;10.50;54.90;;;;;;4104069;28;19954;-84
2023/05/14 00:56:43;;;;;;;;;;;10.50;54.30;;;;;;4119629;28;19920;-83
2023/05/14 00:59:03;;;;;;;;;;;10.50;55.30;;;;;;4121210;28;19944;-83
2023/05/14 01:01:22;;;;;;;;;;;10.40;55.00;;;;;;4113965;28;19928;-84
2023/05/14 01:03:42;;;;;;;;;;;10.50;54.80;;;;;;4120911;28;19972;-83
2023/05/14 01:06:24;;;;;;;;;;;10.50;55.10;;;;;;4123602;28;19924;-83
2023/05/14 01:09:03;;;;;;;;;;;10.40;55.60;;;;;;4103203;28;19933;-84
2023/05/14 01:11:30;;;;;;;;;;;10.40;54.80;;;;;;4119287;28;19936;-83
2023/05/14 01:13:50;;;;;;;;;;;10.40;55.00;;;;;;4105088;28;20029;-83
2023/05/14 01:16:11;;;;;;;;;;;10.50;55.60;;;;;;4114163;28;20458;-84
2023/05/14 01:18:31;;;;;;;;;;;10.40;55.10;;;;;;4107588;28;19928;-83
2023/05/14 01:20:51;;;;;;;;;;;10.40;55.00;;;;;;4106483;28;20320;-84
2023/05/14 01:23:10;;;;;;;;;;;10.40;55.00;;;;;;4106308;28;19921;-83
2023/05/14 01:25:30;;;;;;;;;;;10.50;55.40;;;;;;4111776;28;19953;-84
2023/05/14 01:28:02;;;;;;;;;;;10.50;56.10;;;;;;4121710;28;20139;-83
2023/05/14 01:30:24;;;;;;;;;;;10.40;55.90;;;;;;4118977;28;19928;-85
2023/05/14 01:32:45;;;;;;;;;;;10.40;56.70;;;;;;4108984;28;19973;-83
2023/05/14 01:35:06;;;;;;;;;;;10.40;57.10;;;;;;4121975;28;19981;-84
2023/05/14 01:37:27;;;;;;;;;;;10.40;56.40;;;;;;4120261;28;19959;-83
2023/05/14 01:39:46;;;;;;;;;;;10.40;56.40;;;;;;4123034;28;19952;-83
2023/05/14 01:42:06;;;;;;;;;;;10.40;56.20;;;;;;4108593;28;20505;-84
2023/05/14 01:44:25;;;;;;;;;;;10.40;56.30;;;;;;4119782;28;19933;-84
2023/05/14 01:46:45;;;;;;;;;;;10.40;57.20;;;;;;4119532;28;19928;-85
2023/05/14 01:49:04;;;;;;;;;;;10.40;57.30;;;;;;4109405;28;19933;-84
2023/05/14 01:51:23;;;;;;;;;;;10.40;57.40;;;;;;4124231;28;20682;-83
2023/05/14 01:53:43;;;;;;;;;;;10.30;57.00;;;;;;4122651;28;19929;-84
2023/05/14 01:56:02;;;;;;;;;;;10.30;57.00;;;;;;4124920;28;19925;-85
2023/05/14 01:58:21;;;;;;;;;;;10.30;56.80;;;;;;4123609;28;19925;-84
2023/05/14 02:00:40;;;;;;;;;;;10.30;57.00;;;;;;4115538;28;19929;-84
2023/05/14 02:02:59;;;;;;;;;;;10.30;57.40;;;;;;4112232;28;19932;-83
2023/05/14 02:05:21;;;;;;;;;;;10.30;56.90;;;;;;4109034;28;19982;-83
2023/05/14 02:07:41;;;;;;;;;;;10.30;57.40;;;;;;4107714;28;20001;-84
2023/05/14 02:10:00;;;;;;;;;;;10.30;57.60;;;;;;4122763;28;19928;-84
2023/05/14 02:12:20;;;;;;;;;;;10.30;57.40;;;;;;4112814;28;20032;-83
2023/05/14 02:14:39;;;;;;;;;;;10.30;57.50;;;;;;4109630;28;19921;-84
2023/05/14 02:16:58;;;;;;;;;;;10.20;57.90;;;;;;4121672;28;19929;-84
2023/05/14 02:19:17;;;;;;;;;;;10.30;57.20;;;;;;4123066;28;20013;-83
2023/05/14 02:21:37;;;;;;;;;;;10.20;57.30;;;;;;4107556;28;20554;-83
2023/05/14 02:23:56;;;;;;;;;;;10.20;57.30;;;;;;4108059;28;19929;-83
2023/05/14 02:26:15;;;;;;;;;;;10.20;57.30;;;;;;4125013;28;19929;-83
2023/05/14 02:28:34;;;;;;;;;;;10.20;58.10;;;;;;4111111;28;20671;-84
2023/05/14 02:30:57;;;;;;;;;;;10.10;57.90;;;;;;4121470;28;19960;-84
2023/05/14 02:33:16;;;;;;;;;;;10.00;57.30;;;;;;4122643;28;19933;-84
2023/05/14 02:35:36;;;;;;;;;;;10.10;57.20;;;;;;4110297;28;20017;-84
2023/05/14 02:37:55;;;;;;;;;;;10.10;57.80;;;;;;4110724;28;20568;-84
2023/05/14 02:40:14;;;;;;;;;;;10.00;58.50;;;;;;4123317;28;19924;-83
2023/05/14 02:42:34;;;;;;;;;;;10.00;57.30;;;;;;4116898;28;19945;-84
2023/05/14 02:44:53;;;;;;;;;;;10.00;57.30;;;;;;4123292;28;19945;-84
2023/05/14 02:47:12;;;;;;;;;;;9.90;57.70;;;;;;4121315;28;20017;-84
2023/05/14 02:49:16;;;;;;;;;;;10.00;57.10;;;;;;4124042;28;19917;-85
2023/05/14 02:51:18;;;;;;;;;;;9.90;57.00;;;;;;4124017;28;20033;-85
2023/05/14 02:53:18;;;;;;;;;;;9.90;57.10;;;;;;4122947;28;20068;-84
2023/05/14 02:55:19;;;;;;;;;;;10.00;56.80;;;;;;4103901;28;19922;-84
2023/05/14 02:57:20;;;;;;;;;;;9.90;57.00;;;;;;4122781;28;19960;-84
2023/05/14 02:59:22;;;;;;;;;;;9.90;57.00;;;;;;4090956;28;19914;-85
2023/05/14 03:01:23;;;;;;;;;;;9.90;57.40;;;;;;4093029;28;19918;-84
2023/05/14 03:03:27;;;;;;;;;;;9.90;57.50;;;;;;4105061;28;19918;-84
2023/05/14 03:05:28;;;;;;;;;;;9.90;57.30;;;;;;4108795;28;20331;-84
2023/05/14 03:07:28;;;;;;;;;;;9.90;57.40;;;;;;4105483;28;19914;-86
2023/05/14 03:09:32;;;;;;;;;;;9.90;57.60;;;;;;4122085;28;20885;-84
2023/05/14 03:11:33;;;;;;;;;;;9.90;57.60;;;;;;4105966;28;19926;-83
2023/05/14 03:13:33;;;;;;;;;;;9.90;59.00;;;;;;4129257;28;19917;-85
2023/05/14 03:15:34;;;;;;;;;;;9.90;58.30;;;;;;4120917;28;19930;-84
2023/05/14 03:17:34;;;;;;;;;;;9.90;58.40;;;;;;4105241;28;19918;-83
2023/05/14 03:19:35;;;;;;;;;;;9.90;58.10;;;;;;4091489;28;20595;-83
2023/05/14 03:21:38;;;;;;;;;;;9.90;58.30;;;;;;4121607;28;20016;-83
2023/05/14 03:23:39;;;;;;;;;;;9.90;58.00;;;;;;4108954;28;19914;-85
2023/05/14 03:25:39;;;;;;;;;;;9.90;58.00;;;;;;4124561;28;20102;-84
2023/05/14 03:27:40;;;;;;;;;;;10.00;58.10;;;;;;4122316;28;19921;-84
2023/05/14 03:29:41;;;;;;;;;;;10.00;58.10;;;;;;4124861;28;20005;-83
2023/05/14 03:31:42;;;;;;;;;;;10.00;57.90;;;;;;4106857;28;19918;-84
2023/05/14 03:33:45;;;;;;;;;;;9.90;57.60;;;;;;4108421;28;19914;-83
2023/05/14 03:35:46;;;;;;;;;;;10.10;57.70;;;;;;4094541;28;19929;-84
2023/05/14 03:37:46;;;;;;;;;;;10.00;58.00;;;;;;4119580;28;19976;-85
2023/05/14 03:39:53;;;;;;;;;;;10.00;58.80;;;;;;4105229;28;19918;-84
2023/05/14 03:41:59;;;;;;;;;;;10.00;58.30;;;;;;4095009;28;20200;-84
2023/05/14 03:43:59;;;;;;;;;;;10.00;59.80;;;;;;4106915;28;19924;-84
2023/05/14 03:46:07;;;;;;;;;;;10.10;59.80;;;;;;4124288;28;20736;-84
2023/05/14 03:48:11;;;;;;;;;;;10.00;59.70;;;;;;4108000;28;19922;-84
2023/05/14 03:50:14;;;;;;;;;;;10.10;59.40;;;;;;4104875;28;19946;-84
2023/05/14 03:52:15;;;;;;;;;;;10.00;59.30;;;;;;4106522;28;20282;-84
2023/05/14 03:54:15;;;;;;;;;;;10.10;59.20;;;;;;4123370;28;19918;-84
2023/05/14 03:56:19;;;;;;;;;;;10.10;59.30;;;;;;4111108;28;19922;-84
2023/05/14 03:58:22;;;;;;;;;;;10.10;60.00;;;;;;4106142;28;19949;-84
2023/05/14 04:00:23;;;;;;;;;;;10.20;59.50;;;;;;4104097;28;21590;-84
2023/05/14 04:02:23;;;;;;;;;;;10.10;60.00;;;;;;4121023;28;19920;-84
2023/05/14 04:04:26;;;;;;;;;;;10.10;59.60;;;;;;4102833;28;19973;-84
2023/05/14 04:06:36;;;;;;;;;;;10.10;58.80;;;;;;4122816;28;20403;-85
2023/05/14 04:08:42;;;;;;;;;;;10.20;59.30;;;;;;4091830;28;19925;-84
2023/05/14 04:10:43;;;;;;;;;;;10.20;59.60;;;;;;4089014;28;19927;-84
2023/05/14 04:12:44;;;;;;;;;;;10.20;59.90;;;;;;4103717;28;20408;-84
2023/05/14 04:14:44;;;;;;;;;;;10.20;59.30;;;;;;4095691;28;20747;-84
2023/05/14 04:16:45;;;;;;;;;;;10.30;61.40;;;;;;4106018;28;19914;-85
2023/05/14 04:18:45;;;;;;;;;;;10.30;60.80;;;;;;4092883;28;19985;-84
2023/05/14 04:20:46;;;;;;;;;;;10.30;60.90;;;;;;4124736;28;19929;-83
2023/05/14 04:22:46;;;;;;;;;;;10.30;60.90;;;;;;4104540;28;19925;-84
2023/05/14 04:24:47;;;;;;;;;;;10.30;60.90;;;;;;4123654;28;20016;-84
2023/05/14 04:26:48;;;;;;;;;;;10.40;62.40;;;;;;4122358;28;19917;-84
2023/05/14 04:29:14;;;;;;;;;;;10.50;61.60;;;;;;4100821;28;19989;-84
2023/05/14 04:31:17;;;;;;;;;;;10.50;62.20;;;;;;4124278;28;19913;-85
2023/05/14 04:33:21;;;;;;;;;;;10.50;62.00;;;;;;4123143;28;19955;-84
2023/05/14 04:35:22;;;;;;;;;;;10.60;62.50;;;;;;4093539;28;20254;-84
2023/05/14 04:37:35;;;;;;;;;;;10.70;62.50;;;;;;4093106;28;19924;-84
2023/05/14 04:39:36;;;;;;;;;;;10.60;62.90;;;;;;4121905;28;19914;-84
2023/05/14 04:41:42;;;;;;;;;;;10.80;63.70;;;;;;4090388;28;19928;-85
2023/05/14 04:43:43;;;;;;;;;;;10.90;65.00;;;;;;4108233;28;19917;-85
2023/05/14 04:45:44;;;;;;;;;;;11.00;64.80;;;;;;4107184;28;19922;-84
2023/05/14 04:47:59;;;;;;;;;;;11.20;64.20;;;;;;4091628;28;22301;-84
2023/05/14 04:50:03;;;;;;;;;;;11.10;63.30;;;;;;4093798;28;20467;-83
2023/05/14 04:52:10;;;;;;;;;;;11.20;63.30;;;;;;4104674;28;20005;-85
2023/05/14 04:54:11;;;;;;;;;;;11.30;62.70;;;;;;4100018;28;20024;-84
2023/05/14 04:56:11;;;;;;;;;;;11.40;62.70;;;;;;4124171;28;20001;-84
2023/05/14 04:58:12;;;;;;;;;;;11.50;62.70;;;;;;4091043;28;19931;-84
2023/05/14 05:00:13;;;;;;;;;;;11.60;65.40;;;;;;4120193;28;19930;-84
2023/05/14 05:02:13;;;;;;;;;;;11.60;65.00;;;;;;4100400;28;19918;-84
2023/05/14 05:04:14;;;;;;;;;;;11.70;64.10;;;;;;4099413;28;19933;-84
2023/05/14 05:06:14;;;;;;;;;;;11.70;63.70;;;;;;4089388;28;19918;-84
2023/05/14 05:08:15;;;;;;;;;;;11.80;64.30;;;;;;4082874;28;19918;-84
2023/05/14 05:10:16;;;;;;;;;;;11.90;62.90;;;;;;4123630;28;20533;-84
2023/05/14 05:12:16;;;;;;;;;;;11.90;62.80;;;;;;4092150;28;19926;-83
2023/05/14 05:14:19;;;;;;;;;;;12.10;65.30;;;;;;4107314;28;19926;-83
2023/05/14 05:16:20;;;;;;;;;;;12.20;66.00;;;;;;4109250;28;19925;-83
2023/05/14 05:18:20;;;;;;;;;;;12.20;64.80;;;;;;4104344;28;19929;-83
2023/05/14 05:20:22;;;;;;;;;;;12.20;65.50;;;;;;4107358;28;19918;-83
2023/05/14 05:22:23;;;;;;;;;;;12.20;65.00;;;;;;4111157;28;19922;-84
2023/05/14 05:24:23;;;;;;;;;;;12.30;65.30;;;;;;4106483;28;21853;-84
2023/05/14 05:26:25;;;;;;;;;;;12.30;64.60;;;;;;4118420;28;19914;-83
2023/05/14 05:28:28;;;;;;;;;;;12.40;65.10;;;;;;4091242;28;20418;-84
2023/05/14 05:30:30;;;;;;;;;;;12.40;67.60;;;;;;4089014;28;20369;-83
2023/05/14 05:32:30;;;;;;;;;;;12.50;68.20;;;;;;4119251;28;19936;-83
2023/05/14 05:34:31;;;;;;;;;;;12.50;69.20;;;;;;4119511;28;19918;-84
2023/05/14 05:36:32;;;;;;;;;;;12.50;69.80;;;;;;4114180;28;19917;-83
2023/05/14 05:38:32;;;;;;;;;;;12.50;70.00;;;;;;4100236;28;19923;-84
2023/05/14 05:40:33;;;;;;;;;;;12.60;71.10;;;;;;4121479;28;19924;-84
2023/05/14 05:42:34;;;;;;;;;;;12.60;70.70;;;;;;4101104;28;19951;-83
2023/05/14 05:44:34;;;;;;;;;;;12.60;71.80;;;;;;4115782;28;19965;-83
2023/05/14 05:46:35;;;;;;;;;;;12.60;72.50;;;;;;4086852;28;20285;-83
2023/05/14 05:48:36;;;;;;;;;;;12.70;71.60;;;;;;4101122;28;19914;-84
2023/05/14 05:50:36;;;;;;;;;;;12.80;70.30;;;;;;4116993;28;19914;-83
2023/05/14 05:52:37;;;;;;;;;;;12.80;70.00;;;;;;4097681;28;19933;-84
2023/05/14 05:54:47;;;;;;;;;;;12.90;69.50;;;;;;4103281;28;19919;-84
2023/05/14 05:56:48;;;;;;;;;;;13.00;68.90;;;;;;4079720;28;20647;-84
2023/05/14 05:58:48;;;;;;;;;;;13.00;70.40;;;;;;4083930;28;19969;-84
2023/05/14 06:00:49;;;;;;;;;;;13.10;72.50;;;;;;4103226;28;20499;-84
2023/05/14 06:02:50;;;;;;;;;;;13.10;73.10;;;;;;4099832;28;20308;-84
2023/05/14 06:04:51;;;;;;;;;;;13.20;72.90;;;;;;4082697;28;20029;-84
2023/05/14 06:06:52;;;;;;;;;;;13.30;72.80;;;;;;4095673;28;19973;-84
2023/05/14 06:08:53;;;;;;;;;;;13.40;72.20;;;;;;4116834;28;19918;-84
2023/05/14 06:10:54;;;;;;;;;;;13.50;71.50;;;;;;4097069;28;19923;-84
2023/05/14 06:12:55;;;;;;;;;;;13.60;71.10;;;;;;4078791;28;20394;-84
2023/05/14 06:14:56;;;;;;;;;;;13.70;71.10;;;;;;4096301;28;20260;-85
2023/05/14 06:16:57;;;;;;;;;;;13.70;71.60;;;;;;4099671;28;20650;-85
2023/05/14 06:19:01;;;;;;;;;;;13.80;71.30;;;;;;4112523;28;19922;-84
2023/05/14 06:21:02;;;;;;;;;;;13.90;71.30;;;;;;4116712;28;20654;-85
2023/05/14 06:23:22;;;;;;;;;;;14.00;70.90;;;;;;4114136;28;19918;-85
2023/05/14 06:25:23;;;;;;;;;;;14.30;70.70;;;;;;4083869;28;19933;-84
2023/05/14 06:27:23;;;;;;;;;;;14.20;70.20;;;;;;4116163;28;19989;-84
2023/05/14 06:29:42;;;;;;;;;;;14.40;70.10;;;;;;4088467;28;20002;-85
2023/05/14 06:31:43;;;;;;;;;;;14.50;70.60;;;;;;4170745;23;19933;-84
2023/05/14 06:33:44;;;;;;;;;;;14.60;69.10;;;;;;4151089;28;19921;-85
2023/05/14 06:35:44;;;;;;;;;;;14.70;68.50;;;;;;4133436;28;20401;-85
2023/05/14 06:37:54;;;;;;;;;;;14.80;68.60;;;;;;4120678;28;20323;-84
2023/05/14 06:39:57;;;;;;;;;;;14.80;68.00;;;;;;4148004;28;20014;-85
2023/05/14 06:42:13;;;;;;;;;;;14.90;67.70;;;;;;4158438;28;19927;-84
2023/05/14 06:44:40;;;;;;;;;;;15.10;67.60;;;;;;4144161;28;19935;-84
2023/05/14 06:46:43;;;;;;;;;;;15.30;67.50;;;;;;4135591;28;19922;-84
2023/05/14 06:48:44;;;;;;;;;;;15.30;67.30;;;;;;4146191;28;19924;-84
2023/05/14 06:50:45;;;;;;;;;;;15.40;66.60;;;;;;4163076;28;20052;-84
2023/05/14 06:52:59;;;;;;;;;;;15.50;66.10;;;;;;4149708;28;19921;-84
2023/05/14 06:55:10;;;;;;;;;;;15.60;65.50;;;;;;4150685;28;19921;-84
2023/05/14 06:57:17;;;;;;;;;;;15.60;66.00;;;;;;4145350;28;19913;-84
2023/05/14 06:59:18;;;;;;;;;;;15.80;64.10;;;;;;4147053;28;19929;-85
2023/05/14 07:01:19;;;;;;;;;;;15.80;64.00;;;;;;4146437;28;19959;-85
2023/05/14 07:03:39;;;;;;;;;;;16.00;64.20;;;;;;4164454;28;19912;-85
2023/05/14 07:06:00;;;;;;;;;;;16.10;63.80;;;;;;4148922;28;19925;-85
2023/05/14 07:08:23;;;;;;;;;;;16.20;64.20;;;;;;4159153;28;19917;-85
2023/05/14 07:10:44;;;;;;;;;;;16.20;63.50;;;;;;4162799;28;19921;-85
2023/05/14 07:13:04;;;;;;;;;;;16.40;63.50;;;;;;4163772;28;19913;-85
2023/05/14 07:15:25;;;;;;;;;;;16.40;63.00;;;;;;4162228;28;19948;-85
2023/05/14 07:17:45;;;;;;;;;;;16.50;61.70;;;;;;4166839;28;19917;-85
2023/05/14 07:20:06;;;;;;;;;;;16.60;61.90;;;;;;4162758;28;19924;-84
2023/05/14 07:22:27;;;;;;;;;;;16.70;62.20;;;;;;4111706;28;19963;-85
2023/05/14 07:24:51;;;;;;;;;;;16.80;61.50;;;;;;4148324;28;19982;-85
2023/05/14 07:27:11;;;;;;;;;;;16.80;60.70;;;;;;4147509;28;19929;-85
2023/05/14 07:29:35;;;;;;;;;;;17.00;61.50;;;;;;4160261;28;19917;-84
2023/05/14 07:31:55;;;;;;;;;;;17.00;61.80;;;;;;4160594;28;19974;-85
2023/05/14 07:34:16;;;;;;;;;;;17.00;61.40;;;;;;4162688;28;19921;-85
2023/05/14 07:36:46;;;;;;;;;;;17.10;61.30;;;;;;4153360;28;20015;-85
2023/05/14 07:39:07;;;;;;;;;;;17.10;61.50;;;;;;4159580;28;19964;-86
2023/05/14 07:41:28;;;;;;;;;;;17.20;61.80;;;;;;4151295;28;19921;-85
2023/05/14 07:43:28;;;;;;;;;;;17.20;61.60;;;;;;4165653;28;19943;-85
2023/05/14 07:45:44;;;;;;;;;;;17.20;60.90;;;;;;4134299;28;19949;-85
2023/05/14 07:47:45;;;;;;;;;;;17.30;61.10;;;;;;4147881;28;19921;-84
2023/05/14 07:49:46;;;;;;;;;;;17.40;61.70;;;;;;4147442;28;19928;-85
2023/05/14 07:51:46;;;;;;;;;;;17.40;61.70;;;;;;4145101;28;19925;-85
2023/05/14 07:53:50;;;;;;;;;;;17.60;61.80;;;;;;4132315;28;20443;-85
2023/05/14 07:55:58;;;;;;;;;;;17.50;60.70;;;;;;4133265;28;19980;-85
2023/05/14 07:57:59;;;;;;;;;;;17.60;61.10;;;;;;4135217;28;19996;-85
2023/05/14 08:00:00;;;;;;;;;;;17.60;61.10;;;;;;4133949;28;19925;-85
2023/05/14 08:02:01;;;;;;;;;;;17.60;61.10;;;;;;4144405;28;19924;-86
2023/05/14 08:04:01;;;;;;;;;;;17.70;59.90;;;;;;4149307;28;19928;-85
2023/05/14 08:06:08;;;;;;;;;;;17.70;60.40;;;;;;4164570;28;20012;-85
2023/05/14 08:08:08;;;;;;;;;;;17.80;60.50;;;;;;4157774;28;20022;-85
2023/05/14 08:10:12;;;;;;;;;;;17.90;61.00;;;;;;4142708;28;19921;-85
2023/05/14 08:12:13;;;;;;;;;;;18.00;61.40;;;;;;4151916;28;19936;-85
2023/05/14 08:14:23;;;;;;;;;;;18.10;60.90;;;;;;4135535;28;20379;-86
2023/05/14 08:16:24;;;;;;;;;;;18.30;61.00;;;;;;4150819;28;19920;-85
2023/05/14 08:18:27;;;;;;;;;;;18.30;59.80;;;;;;4166538;28;19928;-85
2023/05/14 08:20:29;;;;;;;;;;;18.40;59.70;;;;;;4147538;28;19914;-86
2023/05/14 08:22:29;;;;;;;;;;;18.50;60.00;;;;;;4143718;28;19979;-85
2023/05/14 08:24:38;;;;;;;;;;;18.60;59.60;;;;;;4130711;28;19960;-86
2023/05/14 08:26:39;;;;;;;;;;;18.70;59.50;;;;;;4144902;28;19917;-86
2023/05/14 08:28:39;;;;;;;;;;;18.80;59.60;;;;;;4149844;28;19955;-86
2023/05/14 08:30:46;;;;;;;;;;;19.00;58.70;;;;;;4165564;28;20555;-85
2023/05/14 08:32:52;;;;;;;;;;;19.10;56.80;;;;;;4147771;28;19952;-86
2023/05/14 08:35:02;;;;;;;;;;;19.20;57.80;;;;;;4147066;28;20338;-86
2023/05/14 08:37:10;;;;;;;;;;;19.40;57.70;;;;;;4146960;28;19921;-85
2023/05/14 08:39:18;;;;;;;;;;;19.50;58.30;;;;;;4145507;28;19914;-87
2023/05/14 08:41:27;;;;;;;;;;;19.60;55.00;;;;;;4145639;28;20478;-87
2023/05/14 08:43:57;;;;;;;;;;;19.80;56.50;;;;;;4132062;28;19928;-86
2023/05/14 08:46:07;;;;;;;;;;;19.90;50.60;;;;;;4110397;28;19928;-86
2023/05/14 08:51:33;;;;;;;;;;;20.20;53.00;;;;;;4148257;28;19996;-87
2023/05/14 08:53:44;;;;;;;;;;;20.40;53.80;;;;;;4150009;28;19949;-85
2023/05/14 08:55:46;;;;;;;;;;;20.60;50.40;;;;;;4149061;28;19925;-86
2023/05/14 08:57:47;;;;;;;;;;;20.70;51.90;;;;;;4147701;28;19973;-87
2023/05/14 08:59:51;;;;;;;;;;;20.80;48.10;;;;;;4131585;28;20376;-87
2023/05/14 09:01:52;;;;;;;;;;;20.90;46.20;;;;;;4133239;28;19918;-86
2023/05/14 09:03:53;;;;;;;;;;;21.00;45.60;;;;;;4159924;28;19921;-86
2023/05/14 09:05:54;;;;;;;;;;;21.10;49.20;;;;;;4150533;28;20016;-84
2023/05/14 09:07:55;;;;;;;;;;;21.30;50.20;;;;;;4134760;28;19917;-85
2023/05/14 09:09:56;;;;;;;;;;;21.30;50.20;;;;;;4133249;28;20453;-84
2023/05/14 09:11:56;;;;;;;;;;;21.50;45.30;;;;;;4132515;28;19920;-85
2023/05/14 09:13:57;;;;;;;;;;;21.60;45.40;;;;;;4142461;28;20529;-87
2023/05/14 09:15:58;;;;;;;;;;;21.70;47.20;;;;;;4160133;28;20335;-85
2023/05/14 09:17:59;;;;;;;;;;;21.80;45.40;;;;;;4146469;28;21117;-85
2023/05/14 09:20:06;;;;;;;;;;;21.90;44.60;;;;;;4159200;23;19964;-86
2023/05/14 09:22:13;;;;;;;;;;;21.90;43.10;;;;;;4099812;28;19922;-85
2023/05/14 09:24:24;;;;;;;;;;;21.90;46.50;;;;;;4116211;28;20376;-85
2023/05/14 09:26:25;;;;;;;;;;;21.90;48.50;;;;;;4115619;28;20363;-85
2023/05/14 09:28:26;;;;;;;;;;;21.90;48.20;;;;;;4087475;28;19922;-85
2023/05/14 09:30:27;;;;;;;;;;;21.80;49.00;;;;;;4087513;28;19921;-85
2023/05/14 09:32:42;;;;;;;;;;;21.70;49.20;;;;;;4106416;28;19918;-85
2023/05/14 09:34:43;;;;;;;;;;;21.60;49.20;;;;;;4117742;28;19918;-85
2023/05/14 09:36:46;;;;;;;;;;;21.60;49.50;;;;;;4103843;28;20099;-85
2023/05/14 09:38:47;;;;;;;;;;;21.50;49.70;;;;;;4101085;28;19957;-86
2023/05/14 09:40:48;;;;;;;;;;;21.40;49.40;;;;;;4088788;28;19930;-85
2023/05/14 09:42:48;;;;;;;;;;;21.30;49.90;;;;;;4105618;28;19914;-86
2023/05/14 09:45:00;;;;;;;;;;;21.10;49.40;;;;;;4104631;28;19933;-86
2023/05/14 09:47:03;;;;;;;;;;;21.00;49.80;;;;;;4118134;28;19914;-85
2023/05/14 09:49:04;;;;;;;;;;;21.00;50.30;;;;;;4089030;28;19918;-86
2023/05/14 09:51:05;;;;;;;;;;;20.80;50.40;;;;;;4088075;28;19957;-86
2023/05/14 09:53:06;;;;;;;;;;;20.70;51.50;;;;;;4106567;28;20384;-85
2023/05/14 09:55:07;;;;;;;;;;;20.70;51.30;;;;;;4122761;28;19975;-84
2023/05/14 09:57:07;;;;;;;;;;;20.50;51.80;;;;;;4105088;28;20036;-86
2023/05/14 09:59:08;;;;;;;;;;;20.40;52.00;;;;;;4106426;28;19976;-86
2023/05/14 10:01:09;;;;;;;;;;;20.30;51.90;;;;;;4105174;28;20140;-86
2023/05/14 10:03:11;;;;;;;;;;;20.20;52.40;;;;;;4121875;28;20640;-85
2023/05/14 10:05:14;;;;;;;;;;;20.10;52.70;;;;;;4118667;28;19918;-86
2023/05/14 10:07:22;;;;;;;;;;;20.00;53.30;;;;;;4087839;28;19924;-85
2023/05/14 10:09:25;;;;;;;;;;;20.00;53.80;;;;;;4102245;28;19947;-86
2023/05/14 10:11:29;;;;;;;;;;;19.90;53.40;;;;;;4113831;28;19928;-85
2023/05/14 10:13:32;;;;;;;;;;;19.70;53.70;;;;;;4115848;28;19922;-86
2023/05/14 10:15:41;;;;;;;;;;;19.80;54.10;;;;;;4084824;29;19929;-85
2023/05/14 10:17:57;;;;;;;;;;;19.80;54.90;;;;;;4099022;28;19925;-85
2023/05/14 10:20:04;;;;;;;;;;;19.70;55.20;;;;;;4120117;28;21243;-85
2023/05/14 10:22:08;;;;;;;;;;;19.70;54.70;;;;;;4095150;28;19926;-85
2023/05/14 10:24:09;;;;;;;;;;;19.70;55.20;;;;;;4097763;28;19921;-85
2023/05/14 10:26:13;;;;;;;;;;;19.60;54.70;;;;;;4108207;28;20762;-86
2023/05/14 10:28:15;;;;;;;;;;;19.50;54.60;;;;;;4093176;28;20637;-85
2023/05/14 10:30:22;;;;;;;;;;;19.30;54.90;;;;;;4095076;28;19972;-85
2023/05/14 10:32:25;;;;;;;;;;;19.30;56.00;;;;;;4098175;28;20386;-86
2023/05/14 10:34:32;;;;;;;;;;;19.30;56.10;;;;;;4099656;28;19982;-85
2023/05/14 10:36:33;;;;;;;;;;;19.20;55.70;;;;;;4105811;28;19929;-86
2023/05/14 10:38:40;;;;;;;;;;;19.20;55.00;;;;;;4106373;28;20332;-85
2023/05/14 10:40:56;;;;;;;;;;;19.20;55.30;;;;;;4100499;28;19918;-85
2023/05/14 10:43:01;;;;;;;;;;;19.40;55.40;;;;;;4103954;28;20435;-85
2023/05/14 10:45:06;;;;;;;;;;;19.30;55.70;;;;;;4098584;28;20021;-87
2023/05/14 10:47:07;;;;;;;;;;;19.40;55.50;;;;;;4097877;28;20012;-86
2023/05/14 10:49:09;;;;;;;;;;;19.40;55.40;;;;;;4085205;28;19983;-85
2023/05/14 10:51:19;;;;;;;;;;;19.40;54.50;;;;;;4195240;23;19954;-85
2023/05/14 10:53:41;;;;;;;;;;;19.40;55.10;;;;;;4100451;28;19929;-85
2023/05/14 10:55:42;;;;;;;;;;;19.40;53.80;;;;;;4071707;28;20546;-86
2023/05/14 10:57:44;;;;;;;;;;;19.50;54.00;;;;;;4097687;28;19918;-85
2023/05/14 10:59:55;;;;;;;;;;;19.50;53.40;;;;;;4103828;28;19918;-86
2023/05/14 11:05:26;;;;;;;;;;;19.50;52.10;;;;;;4101497;28;19984;-84
2023/05/14 11:07:45;;;;;;;;;;;19.30;50.90;;;;;;4036657;29;19946;-85
2023/05/14 11:09:46;;;;;;;;;;;19.30;51.40;;;;;;4027485;29;19920;-85
2023/05/14 11:11:46;;;;;;;;;;;19.20;51.80;;;;;;4140912;23;20951;-85
2023/05/14 11:13:50;;;;;;;;;;;19.20;52.20;;;;;;4118233;28;19991;-85
2023/05/14 11:15:52;;;;;;;;;;;19.20;51.80;;;;;;4088645;28;19925;-85
2023/05/14 11:17:53;;;;;;;;;;;19.10;51.80;;;;;;4118366;28;19909;-84
2023/05/14 11:19:55;;;;;;;;;;;19.10;51.80;;;;;;4105551;28;19914;-85
2023/05/14 11:22:08;;;;;;;;;;;19.10;52.00;;;;;;4101012;28;19968;-85
2023/05/14 11:24:14;;;;;;;;;;;19.10;51.50;;;;;;4113922;28;20555;-85
2023/05/14 11:26:19;;;;;;;;;;;19.10;52.10;;;;;;4070166;29;20341;-85
2023/05/14 11:28:45;;;;;;;;;;;19.10;52.70;;;;;;4104252;28;20300;-86
2023/05/14 11:30:46;;;;;;;;;;;19.10;52.20;;;;;;4100545;28;19984;-85
2023/05/14 11:32:55;;;;;;;;;;;19.10;52.50;;;;;;4087084;28;19918;-85
2023/05/14 11:35:31;;;;;;;;;;;19.20;51.90;;;;;;4105831;28;19918;-85
2023/05/14 11:37:47;;;;;;;;;;;19.20;51.30;;;;;;4104041;28;19929;-85
2023/05/14 11:40:11;;;;;;;;;;;19.20;51.60;;;;;;4099004;28;19918;-84
2023/05/14 11:43:03;;;;;;;;;;;19.20;51.40;;;;;;4103934;28;21204;-85
2023/05/14 11:45:33;;;;;;;;;;;19.20;51.80;;;;;;4069859;29;19983;-84
2023/05/14 11:47:54;;;;;;;;;;;19.10;51.90;;;;;;4057920;29;19950;-85
2023/05/14 11:50:17;;;;;;;;;;;19.20;51.30;;;;;;4056362;29;20405;-84
2023/05/14 11:52:39;;;;;;;;;;;19.20;50.90;;;;;;4071258;29;20496;-85
2023/05/14 11:54:59;;;;;;;;;;;19.10;51.40;;;;;;4070518;29;20405;-84
2023/05/14 11:57:25;;;;;;;;;;;19.20;51.50;;;;;;4068003;29;19919;-85
2023/05/14 12:09:17;;;;;;;;;;;19.40;50.10;;;;;;4089423;28;20432;-85
2023/05/14 12:11:40;;;;;;;;;;;19.40;49.90;;;;;;4161735;23;20280;-85
2023/05/14 12:14:20;;;;;;;;;;;19.40;48.80;;;;;;4128907;28;19924;-85
2023/05/14 12:16:41;;;;;;;;;;;19.40;49.70;;;;;;4133201;28;20316;-85
2023/05/14 12:19:10;;;;;;;;;;;19.40;49.90;;;;;;4138935;28;20056;-85
2023/05/14 12:21:31;;;;;;;;;;;19.50;49.40;;;;;;4123759;28;20315;-85
2023/05/14 12:23:34;;;;;;;;;;;19.50;50.30;;;;;;4137240;28;19918;-85
2023/05/14 12:25:48;;;;;;;;;;;19.60;49.50;;;;;;4109365;28;20009;-86
2023/05/14 12:28:06;;;;;;;;;;;19.60;48.20;;;;;;4120926;28;20090;-85
2023/05/14 12:30:13;;;;;;;;;;;19.70;48.80;;;;;;4121578;28;19959;-86
2023/05/14 12:32:16;;;;;;;;;;;19.70;48.50;;;;;;4104743;28;20902;-85
2023/05/14 12:34:19;;;;;;;;;;;19.80;47.70;;;;;;4122180;28;19922;-85
2023/05/14 12:36:20;;;;;;;;;;;19.70;47.40;;;;;;4138215;28;19917;-84
2023/05/14 12:38:21;;;;;;;;;;;19.80;47.70;;;;;;4105428;28;19968;-85
2023/05/14 12:40:21;;;;;;;;;;;19.80;48.20;;;;;;4140289;28;19918;-86
2023/05/14 12:42:22;;;;;;;;;;;19.80;46.60;;;;;;4109877;28;19964;-85
2023/05/14 12:44:23;;;;;;;;;;;19.90;47.80;;;;;;4107564;28;19949;-85
2023/05/14 12:46:24;;;;;;;;;;;19.90;47.40;;;;;;4120065;28;19930;-85
2023/05/14 12:48:25;;;;;;;;;;;19.90;46.70;;;;;;4139114;28;19929;-84